Waynesboro, VA

6:38 PM EDT on July 02, 2015 (GMT -0400)
APRSWXNET | | Change Station
CLOSE
Current Station
Personal Weather Station
Location: Waynesboro, VA
Elevation: 1380 ft
Nearby Weather Stations

Elev 1380 ft 38.08 °N, 78.91 °W | Updated 22 minutes ago

Overcast
Overcast
70 °F
Feels Like 70 °F
N
0
Wind Variable Wind from WNW
Gusts 4.0 mph

Today
High -- | Low -- °F
--% Chance of Precip.
Yesterday
High -- | Low -- °F
Precip. -- in
5:56 AM 8:42 PM
Full, 99% visible
Pressure 29.93 in
Visibility 10.0 miles
Clouds Clear
Dew Point 63 °F
Humidity 78%
Rainfall in
Snow Depth Not available.
UV 2 out of 12
Pollen .50 out of 12
Air Quality Not available.
Flu Activity Not available.
METAR KSHD 022215Z AUTO 00000KT 10SM CLR 23/18 A2993 RMK AO2 T02280178

More Conditions Fewer Conditions

Pressure 29.93 in
Visibility 10.0 miles
Clouds Clear
Dew Point 63 °F
Humidity 78%
Rainfall in
Snow Depth Not available.
UV 2 out of 12
Pollen .50 out of 12
Air Quality Not available.
Flu Activity Not available.
METAR KSHD 022215Z AUTO 00000KT 10SM CLR 23/18 A2993 RMK AO2 T02280178

More Conditions Fewer Conditions

10-Day Weather Forecast

×

Almanac

Astronomy

Jul. 02, 2015 Rise Set
Actual Time
Civil Twilight
Nautical Twilight
Astronomical Twilight
Moon
Length of Visible Light
Length of Day
Tomorrow will be .
, % of the Moon is Illuminated

Today's Extremes

State Highs State Lows

Community

WunderPhotos

Upload Photos

1,834,562 photos uploaded!

WunderBlogs® & News

Nearby

Air Quality

  Air Quality AQ Index Pollutant
Not available.

Snow Depth

Station Depth Elevation

Earthquake Activity

City Distance Mag. Time & Date
Minimum magnitude displayed is 2.5.

Coastal Water Temperatures

Place Temperature

Stations

Nearby Weather Stations

Station Location Temp. Windchill Dew Point Humidity Wind Precip. Elev Updated Type